Time;durP1;ratioP1;P1;durP2;ratioP2;P2;SDS_P1;SDS_P2;PMS_P1;PMS_P2;Temp;Humidity;BMP_temperature;BMP_pressure;BME280_temperature;BME280_humidity;BME280_pressure;Samples;Min_cycle;Max_cycle;Signal;HPM_P1;HPM_P2
2021/09/20 00:01:21;;;;;;;12.60;7.32;;;;;;;17.00;59.52;93688.69;5013029;28;20048;-75
2021/09/20 00:03:47;;;;;;;12.27;7.93;;;;;;;16.89;59.96;93676.19;5010755;28;20041;-75
2021/09/20 00:06:12;;;;;;;13.32;7.95;;;;;;;16.78;59.94;93670.63;5011941;28;20041;-76
2021/09/20 00:08:38;;;;;;;11.25;7.20;;;;;;;16.84;59.67;93679.94;5012984;28;20106;-75
2021/09/20 00:11:04;;;;;;;17.13;7.32;;;;;;;16.73;59.86;93665.53;5014417;28;20073;-75
2021/09/20 00:13:29;;;;;;;9.93;7.07;;;;;;;16.73;59.52;93662.84;5015205;28;20045;-75
2021/09/20 00:15:54;;;;;;;13.52;7.32;;;;;;;16.80;59.63;93676.41;5012405;28;20045;-75
2021/09/20 00:18:20;;;;;;;12.60;8.05;;;;;;;16.67;59.72;93658.91;5014567;28;20044;-74
2021/09/20 00:20:46;;;;;;;18.83;7.78;;;;;;;16.71;60.08;93670.50;5013866;28;20099;-74
2021/09/20 00:23:11;;;;;;;16.52;8.25;;;;;;;16.62;60.13;93661.88;5014311;28;20033;-76
2021/09/20 00:25:36;;;;;;;13.25;7.93;;;;;;;16.55;60.22;93645.63;5033618;28;20359;-75
2021/09/20 00:28:02;;;;;;;15.88;8.40;;;;;;;16.59;60.25;93646.47;5018393;28;20404;-76
2021/09/20 00:30:28;;;;;;;10.35;7.72;;;;;;;16.61;59.99;93649.59;5011334;28;20404;-74
2021/09/20 00:32:53;;;;;;;13.25;7.93;;;;;;;16.70;59.96;93661.66;5013186;28;20076;-76
2021/09/20 00:35:19;;;;;;;16.52;7.45;;;;;;;16.84;59.82;93657.69;5014908;28;20100;-74
2021/09/20 00:37:44;;;;;;;14.05;6.53;;;;;;;16.67;60.02;93648.19;5014309;28;20042;-75
2021/09/20 00:40:10;;;;;;;13.68;6.45;;;;;;;16.43;60.11;93600.91;5015969;28;20033;-75
2021/09/20 00:42:36;;;;;;;13.05;7.43;;;;;;;16.58;60.30;93637.63;5014194;28;20140;-75
2021/09/20 00:45:02;;;;;;;15.75;7.88;;;;;;;16.89;60.63;93658.16;5015486;28;20614;-75
2021/09/20 00:47:27;;;;;;;11.75;7.38;;;;;;;16.81;60.55;93653.81;5011412;28;20518;-74
2021/09/20 00:49:53;;;;;;;10.82;7.75;;;;;;;16.73;61.22;93649.41;5012000;28;20036;-74
2021/09/20 00:52:18;;;;;;;15.45;7.80;;;;;;;16.61;61.23;93644.22;5016282;28;20038;-74
2021/09/20 00:54:44;;;;;;;12.15;7.50;;;;;;;16.57;61.29;93640.69;5009423;28;20044;-74
2021/09/20 00:57:11;;;;;;;13.45;7.53;;;;;;;16.61;61.40;93650.38;5017606;28;20452;-74
2021/09/20 00:59:37;;;;;;;16.67;8.60;;;;;;;16.48;61.08;93632.06;5014083;28;20820;-75
2021/09/20 01:02:03;;;;;;;10.13;7.22;;;;;;;16.51;60.64;93628.69;5016549;28;20391;-75
2021/09/20 01:04:28;;;;;;;14.68;8.02;;;;;;;16.54;60.67;93636.00;5012288;28;20037;-75
2021/09/20 01:06:54;;;;;;;12.18;7.18;;;;;;;16.48;61.14;93643.56;5013283;28;20573;-74
2021/09/20 01:09:19;;;;;;;12.05;6.38;;;;;;;16.79;60.92;93650.69;5012854;28;20069;-75
2021/09/20 01:11:44;;;;;;;13.75;7.25;;;;;;;16.60;61.03;93642.66;5008852;28;20559;-75
2021/09/20 01:14:10;;;;;;;11.93;7.32;;;;;;;16.60;61.26;93653.41;5012736;28;20029;-75
2021/09/20 01:16:36;;;;;;;12.65;8.07;;;;;;;16.54;61.72;93638.69;5012239;28;20088;-75
2021/09/20 01:19:01;;;;;;;14.98;7.07;;;;;;;16.55;61.71;93648.31;5013970;28;20045;-75
2021/09/20 01:21:27;;;;;;;11.13;6.43;;;;;;;16.45;61.86;93638.16;5014490;28;20037;-75
2021/09/20 01:23:52;;;;;;;16.52;7.32;;;;;;;16.48;61.44;93634.75;5014998;28;20244;-75
2021/09/20 01:26:18;;;;;;;13.07;8.15;;;;;;;16.51;61.10;93639.41;5006824;28;20388;-75
2021/09/20 01:28:43;;;;;;;10.73;7.55;;;;;;;16.41;60.91;93635.41;5013589;28;20432;-75
2021/09/20 01:31:09;;;;;;;10.35;6.90;;;;;;;16.44;61.23;93639.25;5013014;28;20457;-76
2021/09/20 01:33:34;;;;;;;13.60;7.82;;;;;;;16.38;61.55;93633.41;5013123;28;20037;-75
2021/09/20 01:36:00;;;;;;;16.58;7.43;;;;;;;16.51;61.82;93650.16;5012412;28;20539;-75
2021/09/20 01:38:25;;;;;;;15.10;8.07;;;;;;;16.71;61.19;93649.78;5014844;28;20029;-75
2021/09/20 01:40:51;;;;;;;17.40;7.82;;;;;;;16.55;61.46;93629.53;5011999;28;20095;-76
2021/09/20 01:43:16;;;;;;;15.75;7.65;;;;;;;16.74;60.20;93656.34;5009089;28;20038;-75
2021/09/20 01:45:42;;;;;;;9.73;6.68;;;;;;;16.67;59.86;93643.56;5011679;28;20037;-75
2021/09/20 01:48:08;;;;;;;14.98;7.38;;;;;;;16.65;59.91;93639.69;5012836;28;20045;-75
2021/09/20 01:50:34;;;;;;;12.00;7.45;;;;;;;16.74;59.59;93650.97;5033453;28;20091;-75
2021/09/20 01:52:59;;;;;;;10.30;6.90;;;;;;;16.68;59.46;93650.50;5012346;28;20033;-76
2021/09/20 01:55:25;;;;;;;13.05;7.70;;;;;;;16.67;59.28;93654.28;5015351;28;20397;-75
2021/09/20 01:57:50;;;;;;;15.85;8.07;;;;;;;16.64;59.60;93654.25;5013232;28;20040;-76
2021/09/20 02:00:17;;;;;;;11.68;7.90;;;;;;;16.43;59.65;93641.16;5016439;28;20400;-75
2021/09/20 02:02:43;;;;;;;12.70;7.63;;;;;;;16.34;59.98;93640.59;5015309;28;20273;-74
2021/09/20 02:05:10;;;;;;;13.73;8.00;;;;;;;16.30;60.57;93662.00;5012517;28;20035;-74
2021/09/20 02:07:35;;;;;;;14.95;7.35;;;;;;;16.21;60.74;93645.31;5010774;28;20054;-74
2021/09/20 02:10:03;;;;;;;13.45;8.20;;;;;;;16.11;60.32;93637.81;5019136;28;20973;-75
2021/09/20 02:12:29;;;;;;;15.27;8.68;;;;;;;16.24;60.25;93652.66;5008929;28;20037;-75
2021/09/20 02:14:54;;;;;;;14.60;8.82;;;;;;;16.20;61.11;93649.13;5012313;28;20037;-76
2021/09/20 02:17:20;;;;;;;12.25;7.43;;;;;;;16.22;60.75;93633.47;5015448;28;20026;-75
2021/09/20 02:19:45;;;;;;;12.90;7.45;;;;;;;16.37;59.44;93625.72;5016572;28;20523;-74
2021/09/20 02:22:11;;;;;;;16.67;8.15;;;;;;;16.14;60.54;93612.19;5016204;28;20037;-75
2021/09/20 02:24:36;;;;;;;12.40;7.57;;;;;;;16.08;60.38;93600.19;5012400;28;20037;-75
2021/09/20 02:27:02;;;;;;;17.23;9.15;;;;;;;16.16;60.57;93608.03;5014070;28;20029;-75
2021/09/20 02:29:27;;;;;;;14.00;8.98;;;;;;;16.01;61.50;93595.44;5031130;28;20037;-75
2021/09/20 02:31:53;;;;;;;15.93;8.98;;;;;;;16.06;60.67;93586.34;5014725;28;20049;-75
2021/09/20 02:34:18;;;;;;;12.00;7.68;;;;;;;16.03;60.72;93574.44;5012687;28;20042;-75
2021/09/20 02:36:45;;;;;;;11.02;7.22;;;;;;;16.29;59.14;93579.13;5011414;28;21114;-76
2021/09/20 02:39:10;;;;;;;10.73;8.65;;;;;;;16.07;59.98;93583.31;5013700;28;20069;-75
2021/09/20 02:41:36;;;;;;;17.85;8.35;;;;;;;16.05;60.61;93582.88;5015657;28;20372;-75
2021/09/20 02:44:02;;;;;;;12.63;8.15;;;;;;;16.15;60.42;93586.91;5011921;28;20104;-75
2021/09/20 02:46:28;;;;;;;14.55;9.45;;;;;;;15.83;60.84;93557.56;5016045;28;20092;-75
2021/09/20 02:48:53;;;;;;;17.90;10.27;;;;;;;16.08;61.23;93568.78;5016577;28;20577;-75
2021/09/20 02:51:19;;;;;;;11.93;9.40;;;;;;;16.00;60.84;93572.44;5016668;28;20091;-75
2021/09/20 02:53:44;;;;;;;16.85;9.68;;;;;;;16.11;60.03;93608.31;5015434;28;20095;-75
2021/09/20 02:56:09;;;;;;;15.13;8.55;;;;;;;15.89;61.08;93604.41;5014484;28;20602;-75
2021/09/20 02:58:35;;;;;;;13.52;9.40;;;;;;;15.90;60.80;93605.94;5013322;28;20033;-75
2021/09/20 03:01:00;;;;;;;13.20;9.75;;;;;;;15.65;61.82;93569.00;5014970;28;20033;-75
2021/09/20 03:03:26;;;;;;;15.05;9.45;;;;;;;15.85;61.71;93605.44;5008438;28;20436;-75
2021/09/20 03:05:51;;;;;;;13.45;9.48;;;;;;;15.84;61.82;93611.97;5013102;28;20495;-75
2021/09/20 03:08:16;;;;;;;15.30;9.43;;;;;;;15.88;61.65;93610.91;5014266;28;20060;-75
2021/09/20 03:10:42;;;;;;;12.23;8.35;;;;;;;15.73;61.20;93594.84;5011650;28;20030;-76
2021/09/20 03:13:07;;;;;;;12.82;7.95;;;;;;;15.78;61.35;93597.25;5010612;28;20463;-75
2021/09/20 03:15:33;;;;;;;11.75;8.20;;;;;;;15.97;60.12;93599.97;5014966;28;20258;-75
2021/09/20 03:17:58;;;;;;;8.98;6.93;;;;;;;16.00;60.30;93614.56;5011435;28;20049;-75
2021/09/20 03:20:24;;;;;;;12.85;7.90;;;;;;;16.09;60.22;93609.78;5013161;28;20675;-75
2021/09/20 03:22:49;;;;;;;15.60;7.22;;;;;;;16.01;61.56;93633.00;5011584;28;20069;-75
2021/09/20 03:25:16;;;;;;;12.85;9.13;;;;;;;16.03;62.04;93617.34;5011896;28;20037;-75
2021/09/20 03:27:41;;;;;;;13.77;8.82;;;;;;;15.93;63.24;93620.59;5011740;28;20548;-75
2021/09/20 03:30:09;;;;;;;17.23;9.23;;;;;;;15.92;62.79;93612.88;5017242;28;20045;-76
2021/09/20 03:32:35;;;;;;;14.50;9.55;;;;;;;15.91;63.60;93604.06;5013257;28;20034;-75
2021/09/20 03:35:00;;;;;;;15.90;9.98;;;;;;;15.90;63.79;93600.59;5014243;28;20459;-76
2021/09/20 03:37:25;;;;;;;15.20;9.60;;;;;;;16.03;63.66;93611.97;5014436;28;20046;-76
2021/09/20 03:39:51;;;;;;;15.35;9.77;;;;;;;16.06;63.57;93618.53;5011749;28;20125;-76
2021/09/20 03:42:16;;;;;;;13.98;9.65;;;;;;;15.89;63.76;93595.56;5030537;28;20491;-75
2021/09/20 03:44:42;;;;;;;17.95;10.38;;;;;;;16.20;63.49;93627.66;5008312;28;20048;-76
2021/09/20 03:47:08;;;;;;;20.77;11.40;;;;;;;16.18;63.43;93611.13;5015989;28;20021;-75
2021/09/20 03:49:33;;;;;;;14.60;10.20;;;;;;;16.21;63.54;93606.97;5003028;28;20115;-76
2021/09/20 03:51:59;;;;;;;17.60;12.10;;;;;;;16.16;63.89;93597.28;5013534;28;20088;-75
2021/09/20 03:54:24;;;;;;;22.50;14.25;;;;;;;16.23;63.78;93600.09;5015444;28;20471;-76
2021/09/20 03:56:49;;;;;;;27.75;15.45;;;;;;;16.30;64.04;93600.28;5014708;28;20037;-75
2021/09/20 03:59:15;;;;;;;26.60;16.42;;;;;;;16.30;64.00;93594.94;5013245;28;20384;-75
2021/09/20 04:01:40;;;;;;;35.95;17.42;;;;;;;16.33;64.08;93592.69;5013437;28;20036;-75
2021/09/20 04:04:05;;;;;;;35.95;17.42;;;;;;;16.25;64.16;93589.81;5013178;28;20041;-75
2021/09/20 04:06:31;;;;;;;37.13;17.55;;;;;;;16.31;64.20;93599.16;5013473;28;20515;-75
2021/09/20 04:09:00;;;;;;;34.65;16.48;;;;;;;16.36;64.15;93605.38;5014943;28;20046;-76
2021/09/20 04:11:26;;;;;;;29.77;17.33;;;;;;;16.42;63.75;93620.84;5010024;28;20167;-75
2021/09/20 04:13:51;;;;;;;31.77;18.83;;;;;;;16.38;63.93;93621.91;5013187;28;20472;-75
2021/09/20 04:16:18;;;;;;;27.50;17.02;;;;;;;16.42;63.89;93614.69;5010340;28;20441;-75
2021/09/20 04:18:44;;;;;;;32.50;17.05;;;;;;;16.39;63.34;93593.91;5027273;28;20041;-74
2021/09/20 04:21:09;;;;;;;26.90;17.35;;;;;;;16.55;63.51;93608.03;5008591;28;20041;-75
2021/09/20 04:23:35;;;;;;;26.95;17.73;;;;;;;16.38;63.64;93595.06;5016084;28;20377;-75
2021/09/20 04:26:00;;;;;;;24.70;14.82;;;;;;;16.46;63.68;93618.22;5014300;28;20052;-75
2021/09/20 04:28:28;;;;;;;25.67;14.55;;;;;;;16.42;63.56;93618.16;5016849;28;20040;-76
2021/09/20 04:30:54;;;;;;;24.08;15.00;;;;;;;16.56;63.33;93625.72;5015566;28;20069;-75
2021/09/20 04:33:21;;;;;;;26.08;15.98;;;;;;;16.45;63.49;93624.72;5015564;28;20564;-75
2021/09/20 04:35:48;;;;;;;28.27;15.70;;;;;;;16.35;63.97;93611.88;5015330;28;20575;-75
2021/09/20 04:38:14;;;;;;;30.08;18.02;;;;;;;16.36;64.13;93621.47;5019739;28;20029;-74
2021/09/20 04:40:40;;;;;;;33.75;17.17;;;;;;;16.19;64.33;93599.25;5016270;28;20434;-75
2021/09/20 04:43:08;;;;;;;27.50;15.73;;;;;;;16.31;63.84;93609.91;5013513;28;20033;-75
2021/09/20 04:45:34;;;;;;;27.52;16.95;;;;;;;16.12;64.48;93590.31;5015320;28;20087;-76
2021/09/20 04:48:00;;;;;;;27.88;16.73;;;;;;;16.33;64.10;93606.84;5016931;28;20033;-75
2021/09/20 04:50:26;;;;;;;19.83;15.48;;;;;;;16.38;63.98;93608.50;5012494;28;20072;-75
2021/09/20 04:52:52;;;;;;;22.52;14.35;;;;;;;15.99;65.03;93586.97;5014362;28;20365;-75
2021/09/20 04:55:17;;;;;;;22.38;15.48;;;;;;;16.04;64.93;93605.47;5013214;28;20111;-75
2021/09/20 04:57:42;;;;;;;17.73;14.18;;;;;;;16.26;64.27;93623.56;5015895;28;20575;-74
2021/09/20 05:00:09;;;;;;;18.50;14.85;;;;;;;16.27;64.43;93625.13;5015388;28;20595;-75
2021/09/20 05:02:36;;;;;;;27.35;15.88;;;;;;;16.34;64.27;93635.25;5015278;28;20034;-75
2021/09/20 05:05:02;;;;;;;25.27;16.35;;;;;;;16.32;64.13;93640.19;5014675;28;20110;-74
2021/09/20 05:07:28;;;;;;;37.15;17.90;;;;;;;16.46;63.46;93642.38;5018359;28;20524;-75
2021/09/20 05:09:53;;;;;;;26.60;15.73;;;;;;;16.37;64.35;93645.28;5014640;28;20045;-75
2021/09/20 05:12:19;;;;;;;29.05;16.02;;;;;;;16.37;63.90;93636.47;5014696;28;20560;-76
2021/09/20 05:14:45;;;;;;;23.08;16.33;;;;;;;16.33;63.94;93644.41;5008923;28;20037;-75
2021/09/20 05:17:11;;;;;;;26.33;15.45;;;;;;;16.42;63.69;93641.53;5013526;28;20025;-75
2021/09/20 05:19:36;;;;;;;26.45;16.55;;;;;;;16.24;64.83;93663.38;5014804;28;20026;-75
2021/09/20 05:22:05;;;;;;;27.25;17.05;;;;;;;16.27;64.78;93651.97;5015010;28;20107;-75
2021/09/20 05:24:30;;;;;;;27.63;15.88;;;;;;;16.14;64.48;93645.16;5011048;28;20033;-75
2021/09/20 05:26:56;;;;;;;22.80;17.00;;;;;;;16.04;65.23;93644.94;5011167;28;20044;-74
2021/09/20 05:29:21;;;;;;;25.40;16.90;;;;;;;16.17;65.04;93652.53;5014690;28;20046;-75
2021/09/20 05:31:47;;;;;;;33.88;19.20;;;;;;;16.10;65.72;93663.09;5017240;28;20640;-75
2021/09/20 05:34:12;;;;;;;35.00;18.50;;;;;;;16.04;65.49;93626.94;5013950;28;20244;-75
2021/09/20 05:36:38;;;;;;;32.08;19.63;;;;;;;16.27;66.07;93660.00;5016646;28;20041;-75
2021/09/20 05:39:04;;;;;;;33.40;19.60;;;;;;;16.31;65.52;93652.06;5011514;28;20103;-75
2021/09/20 05:41:29;;;;;;;30.58;18.80;;;;;;;16.35;65.59;93652.13;5016519;28;20056;-75
2021/09/20 05:43:54;;;;;;;34.08;19.27;;;;;;;16.50;65.24;93654.75;5013045;28;20030;-75
2021/09/20 05:46:20;;;;;;;30.58;19.90;;;;;;;16.47;64.47;93660.06;5012940;28;20439;-75
2021/09/20 05:48:45;;;;;;;35.05;20.63;;;;;;;16.38;64.33;93641.44;5018173;28;20056;-75
2021/09/20 05:51:11;;;;;;;33.50;20.25;;;;;;;16.33;64.90;93666.66;5021086;28;20041;-76
2021/09/20 05:53:38;;;;;;;31.35;19.40;;;;;;;16.26;64.96;93658.44;5033014;28;21476;-75
2021/09/20 05:56:04;;;;;;;31.88;19.10;;;;;;;16.23;65.80;93659.13;5017791;28;20021;-75
2021/09/20 05:58:29;;;;;;;28.60;19.55;;;;;;;16.20;66.09;93656.38;5011334;28;20515;-75
2021/09/20 06:00:55;;;;;;;30.23;20.80;;;;;;;16.43;65.22;93651.16;5009211;28;20053;-76
2021/09/20 06:03:20;;;;;;;31.40;19.60;;;;;;;16.21;66.14;93650.69;5013933;28;20072;-75
2021/09/20 06:05:46;;;;;;;39.40;20.42;;;;;;;16.40;66.11;93654.53;5015292;28;20496;-75
2021/09/20 06:08:12;;;;;;;35.97;22.02;;;;;;;16.17;66.40;93652.53;5016496;28;20041;-75
2021/09/20 06:10:37;;;;;;;37.63;21.25;;;;;;;16.25;66.98;93651.53;5016010;28;20124;-75
2021/09/20 06:13:06;;;;;;;34.10;21.10;;;;;;;16.33;66.48;93631.78;5015118;28;20099;-75
2021/09/20 06:15:32;;;;;;;26.70;19.73;;;;;;;16.37;66.56;93634.56;5014802;28;20697;-76
2021/09/20 06:17:57;;;;;;;28.30;19.77;;;;;;;16.33;66.65;93633.69;5014997;28;20046;-75
2021/09/20 06:20:24;;;;;;;32.10;20.45;;;;;;;16.39;66.20;93636.88;5016284;28;20038;-75
2021/09/20 06:22:49;;;;;;;32.83;20.13;;;;;;;16.37;65.88;93636.47;5015786;28;20064;-76
2021/09/20 06:25:14;;;;;;;27.48;20.27;;;;;;;16.49;65.32;93641.66;5015056;28;20148;-75
2021/09/20 06:27:40;;;;;;;36.00;21.40;;;;;;;16.69;65.14;93651.25;5012354;28;20046;-75
2021/09/20 06:30:07;;;;;;;26.33;20.15;;;;;;;16.81;64.72;93648.44;5016901;28;20168;-75
2021/09/20 06:32:32;;;;;;;35.67;18.65;;;;;;;16.78;64.84;93651.81;5014320;28;20057;-75
2021/09/20 06:34:58;;;;;;;32.78;22.05;;;;;;;16.76;64.87;93654.09;5016268;28;20093;-75
2021/09/20 06:37:23;;;;;;;27.55;20.77;;;;;;;16.70;65.00;93658.19;5014724;28;20046;-75
2021/09/20 06:39:49;;;;;;;33.58;19.65;;;;;;;16.62;65.26;93651.16;5014964;28;20470;-76
2021/09/20 06:42:14;;;;;;;31.45;20.55;;;;;;;16.72;64.73;93650.56;5016371;28;20551;-77
2021/09/20 06:44:40;;;;;;;32.35;21.10;;;;;;;16.94;63.36;93663.25;5014715;28;20818;-75
2021/09/20 06:47:06;;;;;;;26.98;19.88;;;;;;;17.14;63.07;93683.63;5014600;28;20034;-75
2021/09/20 06:49:32;;;;;;;30.80;20.73;;;;;;;16.89;64.03;93647.44;5014301;28;20296;-75
2021/09/20 06:51:57;;;;;;;31.33;22.85;;;;;;;17.05;63.75;93669.59;5012910;28;20038;-76
2021/09/20 06:54:23;;;;;;;27.83;19.98;;;;;;;16.81;65.17;93661.88;5006826;28;20161;-76
2021/09/20 06:56:49;;;;;;;29.52;20.58;;;;;;;16.84;65.22;93649.63;5010430;28;20095;-75
2021/09/20 06:59:14;;;;;;;26.05;20.80;;;;;;;16.75;65.80;93655.22;5012878;28;20503;-76
2021/09/20 07:01:40;;;;;;;31.02;20.58;;;;;;;16.84;65.68;93646.94;5010765;28;20268;-76
2021/09/20 07:04:06;;;;;;;34.85;20.50;;;;;;;16.70;65.15;93615.22;5012796;28;20056;-75
2021/09/20 07:06:32;;;;;;;29.30;19.98;;;;;;;17.01;66.14;93649.94;5030961;28;20559;-75
2021/09/20 07:08:57;;;;;;;28.05;21.33;;;;;;;17.05;65.20;93648.13;5011017;28;20068;-75
2021/09/20 07:11:23;;;;;;;28.25;21.33;;;;;;;17.06;64.78;93652.31;5011181;28;20484;-76
2021/09/20 07:13:49;;;;;;;33.53;21.52;;;;;;;17.00;65.32;93634.97;5015029;28;20048;-76
2021/09/20 07:16:15;;;;;;;30.75;21.55;;;;;;;17.13;64.58;93659.75;5013092;28;20929;-75
2021/09/20 07:18:41;;;;;;;33.72;21.00;;;;;;;17.06;65.91;93660.38;5013027;28;20033;-75
2021/09/20 07:21:06;;;;;;;33.28;21.88;;;;;;;17.21;65.75;93676.81;5013442;28;20052;-75
2021/09/20 07:23:32;;;;;;;36.53;22.00;;;;;;;17.04;65.68;93651.94;5009976;28;20037;-74
2021/09/20 07:25:58;;;;;;;34.33;23.10;;;;;;;17.16;65.48;93649.09;5009523;28;20095;-75
2021/09/20 07:28:23;;;;;;;32.75;22.98;;;;;;;17.29;64.91;93654.28;5013397;28;20491;-76
2021/09/20 07:30:49;;;;;;;34.95;25.73;;;;;;;17.46;64.91;93664.53;5010732;28;20038;-75
2021/09/20 07:33:14;;;;;;;33.20;25.40;;;;;;;17.31;65.13;93663.53;5012302;28;20128;-75
2021/09/20 07:35:40;;;;;;;32.78;25.35;;;;;;;17.22;65.48;93646.09;5011892;28;20947;-74
2021/09/20 07:38:06;;;;;;;35.17;25.55;;;;;;;17.03;66.38;93623.50;5012176;28;20488;-74
2021/09/20 07:40:33;;;;;;;45.38;31.65;;;;;;;17.11;67.16;93637.84;5013632;28;20504;-76
2021/09/20 07:42:59;;;;;;;48.10;33.80;;;;;;;17.08;67.75;93647.38;5012314;28;20491;-76
2021/09/20 07:45:25;;;;;;;36.55;24.67;;;;;;;17.08;67.51;93642.00;5011026;28;20309;-75
2021/09/20 07:47:51;;;;;;;35.38;24.15;;;;;;;17.02;67.51;93653.41;5010322;28;20038;-75
2021/09/20 07:50:18;;;;;;;33.30;22.10;;;;;;;17.01;67.23;93638.44;5013219;28;20033;-75
2021/09/20 07:52:45;;;;;;;29.05;21.13;;;;;;;16.98;67.93;93647.97;5009690;28;20148;-75
2021/09/20 07:55:11;;;;;;;29.85;21.35;;;;;;;17.13;66.83;93633.69;5006040;28;20045;-75
2021/09/20 07:57:37;;;;;;;27.20;21.02;;;;;;;17.24;66.52;93628.50;5005055;28;20037;-76
2021/09/20 08:00:05;;;;;;;29.40;21.05;;;;;;;17.40;65.67;93631.06;5016234;28;20598;-75
2021/09/20 08:02:30;;;;;;;34.97;25.90;;;;;;;17.47;65.86;93631.94;5010537;28;20160;-75
2021/09/20 08:04:56;;;;;;;33.28;23.58;;;;;;;17.45;65.68;93623.44;5012460;28;20488;-75
2021/09/20 08:07:21;;;;;;;35.72;23.20;;;;;;;17.09;66.35;93595.22;5010872;28;20045;-75
2021/09/20 08:09:47;;;;;;;40.30;24.52;;;;;;;17.35;66.79;93615.22;5011774;28;20038;-75
2021/09/20 08:12:12;;;;;;;33.53;23.50;;;;;;;17.21;66.93;93623.06;5020874;28;20266;-75
2021/09/20 08:14:37;;;;;;;35.90;24.83;;;;;;;17.16;66.77;93595.34;5031620;28;20041;-75
2021/09/20 08:17:03;;;;;;;32.75;24.05;;;;;;;17.43;66.98;93611.50;5011918;28;20402;-75
2021/09/20 08:19:28;;;;;;;34.83;21.48;;;;;;;17.62;66.40;93608.72;5035647;28;20033;-75
2021/09/20 08:21:54;;;;;;;24.83;19.88;;;;;;;17.70;66.46;93644.59;5054017;28;20697;-75
2021/09/20 08:24:20;;;;;;;27.92;20.13;;;;;;;17.70;64.82;93645.34;5025288;28;20470;-75
2021/09/20 08:26:46;;;;;;;25.45;19.20;;;;;;;17.84;64.80;93629.44;5028716;28;20431;-75
2021/09/20 08:29:12;;;;;;;32.45;19.65;;;;;;;17.93;63.06;93638.03;5013135;28;20040;-75
2021/09/20 08:31:37;;;;;;;36.97;19.80;;;;;;;17.88;63.71;93603.34;5012458;28;20041;-76
2021/09/20 08:34:03;;;;;;;28.40;18.85;;;;;;;18.14;63.46;93642.16;5031629;28;20381;-76
2021/09/20 08:36:28;;;;;;;33.72;20.10;;;;;;;17.81;63.65;93611.31;5032055;28;20037;-76
2021/09/20 08:38:54;;;;;;;28.73;20.15;;;;;;;17.76;64.47;93627.75;5039930;28;20044;-75
2021/09/20 08:41:19;;;;;;;30.42;21.30;;;;;;;17.99;64.59;93623.13;5034872;28;20418;-75
2021/09/20 08:43:45;;;;;;;30.40;22.30;;;;;;;17.49;63.67;93618.91;5037366;28;20041;-75
2021/09/20 08:46:12;;;;;;;40.15;22.90;;;;;;;17.60;64.58;93611.00;5034268;28;20039;-75
2021/09/20 08:48:43;;;;;;;35.40;23.40;;;;;;;17.91;63.88;93597.22;5050853;28;20614;-75
2021/09/20 08:51:11;;;;;;;40.70;22.05;;;;;;;18.14;63.15;93613.31;5037034;28;20053;-76
2021/09/20 08:53:38;;;;;;;32.90;20.45;;;;;;;18.16;63.52;93611.03;5037273;28;20593;-76
2021/09/20 08:56:05;;;;;;;31.77;22.02;;;;;;;17.98;64.26;93578.53;5038982;28;20124;-75
2021/09/20 08:58:30;;;;;;;33.00;22.08;;;;;;;17.82;64.62;93571.75;5015602;28;20038;-75
2021/09/20 09:00:56;;;;;;;32.80;23.15;;;;;;;17.75;64.41;93566.25;5027236;28;20041;-75
2021/09/20 09:03:24;;;;;;;35.33;23.02;;;;;;;17.76;64.49;93573.19;5011818;28;20045;-77
2021/09/20 09:05:50;;;;;;;26.98;21.20;;;;;;;17.85;64.25;93569.09;5018915;28;20044;-76
2021/09/20 09:08:18;;;;;;;32.50;19.73;;;;;;;17.78;64.57;93555.56;5031705;28;20040;-76
2021/09/20 09:10:45;;;;;;;25.17;16.05;;;;;;;18.07;63.51;93566.72;5007804;28;20077;-75
2021/09/20 09:13:13;;;;;;;24.63;18.35;;;;;;;18.09;62.83;93545.59;5007613;28;20097;-75
2021/09/20 09:15:39;;;;;;;27.65;18.20;;;;;;;18.17;63.73;93558.00;5006006;28;20539;-75
2021/09/20 09:18:06;;;;;;;23.95;15.85;;;;;;;18.31;63.11;93572.41;5007008;28;20914;-75
2021/09/20 09:20:35;;;;;;;22.88;15.05;;;;;;;18.58;60.58;93564.97;5007280;28;20018;-75
2021/09/20 09:23:10;;;;;;;20.02;12.82;;;;;;;18.60;59.30;93573.47;5010009;28;20030;-76
2021/09/20 09:25:41;;;;;;;30.13;14.93;;;;;;;18.73;59.43;93576.72;5007073;28;20711;-76
2021/09/20 09:28:24;;;;;;;28.95;15.60;;;;;;;18.62;59.98;93532.72;5007972;28;20038;-75
2021/09/20 09:30:51;;;;;;;28.80;15.18;;;;;;;19.05;58.83;93574.34;5008523;28;20041;-75
2021/09/20 09:33:20;;;;;;;21.52;14.50;;;;;;;18.96;59.21;93549.63;5008289;28;20570;-76
2021/09/20 09:35:48;;;;;;;32.92;16.23;;;;;;;19.29;59.04;93582.63;5008860;28;20037;-75
2021/09/20 09:38:15;;;;;;;29.00;17.00;;;;;;;19.16;58.00;93583.28;5010286;28;20029;-76
2021/09/20 09:40:57;;;;;;;29.90;18.73;;;;;;;18.97;58.41;93591.59;5011222;28;20547;-76
2021/09/20 09:43:25;;;;;;;38.47;19.95;;;;;;;18.86;58.84;93586.88;5009035;28;20044;-77
2021/09/20 09:45:52;;;;;;;30.65;17.50;;;;;;;19.01;58.67;93603.94;5006992;28;20136;-75
2021/09/20 09:48:21;;;;;;;29.25;18.80;;;;;;;18.81;58.29;93584.50;5010709;28;20884;-75
2021/09/20 09:50:50;;;;;;;33.60;20.92;;;;;;;19.05;61.71;93593.19;5007444;28;20069;-75
2021/09/20 09:53:36;;;;;;;29.70;19.85;;;;;;;19.05;59.61;93585.09;5009143;28;20557;-76
2021/09/20 09:56:14;;;;;;;32.13;19.35;;;;;;;19.24;59.99;93590.28;5011807;28;20676;-75
2021/09/20 09:59:00;;;;;;;25.73;17.38;;;;;;;19.24;58.74;93582.19;5011081;28;20041;-75
2021/09/20 10:01:37;;;;;;;32.40;19.17;;;;;;;19.45;58.56;93585.09;5010873;28;20048;-75
2021/09/20 10:04:15;;;;;;;32.45;17.95;;;;;;;19.69;57.38;93578.31;5010396;28;20065;-75
2021/09/20 10:06:40;;;;;;;27.27;18.35;;;;;;;19.64;58.64;93582.16;5017581;28;20856;-75
2021/09/20 10:09:06;;;;;;;28.13;18.70;;;;;;;19.48;59.21;93551.97;5009850;28;20053;-75
2021/09/20 10:11:34;;;;;;;26.42;18.15;;;;;;;19.70;58.11;93569.09;5011232;28;20102;-76
2021/09/20 10:14:00;;;;;;;24.02;17.55;;;;;;;19.83;56.85;93573.00;5011601;28;20617;-77
2021/09/20 10:16:26;;;;;;;22.63;17.85;;;;;;;19.88;57.10;93558.38;5013062;28;20279;-75
2021/09/20 10:18:52;;;;;;;29.50;17.67;;;;;;;19.92;56.86;93562.66;5011371;28;20080;-76
2021/09/20 10:21:18;;;;;;;26.42;18.20;;;;;;;19.95;57.19;93563.81;5013255;28;20045;-76
2021/09/20 10:23:43;;;;;;;26.55;16.52;;;;;;;20.08;57.43;93575.84;5011331;28;20853;-76
2021/09/20 10:26:09;;;;;;;27.08;16.80;;;;;;;20.00;57.26;93560.75;5012456;28;20116;-76
2021/09/20 10:28:35;;;;;;;29.23;17.33;;;;;;;19.96;57.18;93539.16;5007733;28;20068;-76
2021/09/20 10:31:01;;;;;;;26.13;18.40;;;;;;;19.89;57.70;93557.25;5026273;28;20617;-78
2021/09/20 10:33:27;;;;;;;28.10;18.02;;;;;;;19.82;57.39;93538.28;5010447;28;20053;-76
2021/09/20 10:35:54;;;;;;;26.42;16.40;;;;;;;20.12;58.00;93541.53;5008872;28;20048;-77
2021/09/20 10:38:20;;;;;;;33.53;17.38;;;;;;;20.18;57.39;93540.06;5013493;28;20021;-76
2021/09/20 10:41:13;;;;;;;27.67;17.27;;;;;;;20.04;56.90;93519.13;5010554;28;20014;-76
2021/09/20 10:43:41;;;;;;;28.13;16.40;;;;;;;20.13;56.62;93519.56;5029575;28;20045;-76
2021/09/20 10:46:22;;;;;;;25.15;16.48;;;;;;;20.28;56.83;93533.16;5017668;28;20128;-76
2021/09/20 10:48:49;;;;;;;25.25;15.68;;;;;;;20.28;57.18;93517.72;5008638;28;20037;-76
2021/09/20 10:51:20;;;;;;;24.77;14.75;;;;;;;20.45;56.84;93514.28;5010424;28;20033;-75
2021/09/20 10:53:47;;;;;;;24.23;14.05;;;;;;;20.45;56.99;93516.97;5010780;28;20790;-75
2021/09/20 10:56:16;;;;;;;26.08;14.52;;;;;;;20.49;55.33;93512.34;5009083;28;20037;-77
2021/09/20 10:58:43;;;;;;;19.42;13.07;;;;;;;20.58;55.34;93515.47;5008845;28;20091;-76
2021/09/20 11:01:12;;;;;;;22.85;12.25;;;;;;;20.99;57.45;93523.28;5007002;28;20091;-75
2021/09/20 11:03:48;;;;;;;20.52;11.75;;;;;;;20.84;53.61;93500.06;5010659;28;20464;-76
2021/09/20 11:06:20;;;;;;;19.15;10.07;;;;;;;20.43;54.13;93457.19;5010883;28;20570;-75
2021/09/20 11:08:58;;;;;;;20.95;10.70;;;;;;;20.69;54.23;93487.69;5011840;28;20092;-76
2021/09/20 11:11:42;;;;;;;21.70;10.93;;;;;;;20.72;54.42;93486.94;5006828;28;20135;-76
2021/09/20 11:14:11;;;;;;;16.08;10.55;;;;;;;20.99;56.07;93480.78;5028398;28;20145;-76
2021/09/20 11:16:57;;;;;;;26.80;10.25;;;;;;;21.12;54.18;93467.66;5007581;28;20523;-75